Decoded Metar for LZKZ (KOSICE in SLOVAKIA) (IATA:KSC) | Meteo·Mobile Aviation Weather
aviador You're here:

LZKZ Decoded Metar

KOSICE in SLOVAKIA
Report Time2019-11-16 01:30:00
UTC Time2019-11-16 01:56:01
Flight Rules vfr VFR
WindVRB at 01 kt
Visibility9999 m
Phenomena:Patches Fog
Clouds:Broken 037 Hf
Expected CloudBase > 400 ft AGL from Temp-Dew spread
Ceiling3,700 ft
Temp10°C (ISA -3)
Dew Point09°C (94% RH)
AAT9.4°C
QNH1016 hPa
Density Alt400 ft
Elevation761 ft
Report Wrong Elevation
Raw Report
LZKZ 160130Z VRB01KT 9999 BCFG BKN037 10/09 Q1016=

Extra information for LZKZ:More info

Metar Taf Metar & Taf Last 4 Metars F.Rules Stats Wind Profile Meteogram Temp Stats Airport Information Weather charts Add Link Nearby VenuesMetar ALERT Operation Metar Decoded Social comments